sensor_id;sensor_type;location;lat;lon;timestamp;P1;durP1;ratioP1;P2;durP2;ratioP2
1999;SDS011;1001;48.87406500;9.59633600;2023-06-01T00:00:05;4.40;;;2.67;;
1999;SDS011;1001;48.87406500;9.59633600;2023-06-01T00:02:34;4.80;;;3.13;;
1999;SDS011;1001;48.87406500;9.59633600;2023-06-01T00:05:01;3.60;;;3.10;;
1999;SDS011;1001;48.87406500;9.59633600;2023-06-01T00:07:27;3.97;;;2.90;;
1999;SDS011;1001;48.87406500;9.59633600;2023-06-01T00:09:55;7.27;;;2.90;;
1999;SDS011;1001;48.87406500;9.59633600;2023-06-01T00:12:21;5.50;;;3.07;;
1999;SDS011;1001;48.87406500;9.59633600;2023-06-01T00:14:49;6.30;;;3.20;;
1999;SDS011;1001;48.87406500;9.59633600;2023-06-01T00:17:15;6.60;;;2.80;;
1999;SDS011;1001;48.87406500;9.59633600;2023-06-01T00:19:41;5.43;;;3.07;;
1999;SDS011;1001;48.87406500;9.59633600;2023-06-01T00:22:10;5.33;;;3.20;;
1999;SDS011;1001;48.87406500;9.59633600;2023-06-01T00:24:36;6.90;;;2.77;;
1999;SDS011;1001;48.87406500;9.59633600;2023-06-01T00:27:03;5.07;;;3.03;;
1999;SDS011;1001;48.87406500;9.59633600;2023-06-01T00:29:30;6.37;;;3.40;;
1999;SDS011;1001;48.87406500;9.59633600;2023-06-01T00:31:58;3.50;;;2.60;;
1999;SDS011;1001;48.87406500;9.59633600;2023-06-01T00:34:24;5.33;;;2.90;;
1999;SDS011;1001;48.87406500;9.59633600;2023-06-01T00:36:50;5.63;;;3.30;;
1999;SDS011;1001;48.87406500;9.59633600;2023-06-01T00:39:17;9.03;;;2.80;;
1999;SDS011;1001;48.87406500;9.59633600;2023-06-01T00:41:43;3.80;;;2.50;;
1999;SDS011;1001;48.87406500;9.59633600;2023-06-01T00:44:10;4.33;;;2.80;;
1999;SDS011;1001;48.87406500;9.59633600;2023-06-01T00:46:36;5.73;;;2.63;;
1999;SDS011;1001;48.87406500;9.59633600;2023-06-01T00:49:04;6.30;;;2.80;;
1999;SDS011;1001;48.87406500;9.59633600;2023-06-01T00:51:31;4.90;;;2.90;;
1999;SDS011;1001;48.87406500;9.59633600;2023-06-01T00:53:59;3.67;;;2.77;;
1999;SDS011;1001;48.87406500;9.59633600;2023-06-01T00:56:25;3.30;;;2.73;;
1999;SDS011;1001;48.87406500;9.59633600;2023-06-01T00:58:52;9.43;;;4.10;;
1999;SDS011;1001;48.87406500;9.59633600;2023-06-01T01:01:18;6.93;;;2.83;;
1999;SDS011;1001;48.87406500;9.59633600;2023-06-01T01:03:47;5.63;;;2.90;;
1999;SDS011;1001;48.87406500;9.59633600;2023-06-01T01:06:20;3.90;;;2.80;;
1999;SDS011;1001;48.87406500;9.59633600;2023-06-01T01:08:51;5.40;;;2.97;;
1999;SDS011;1001;48.87406500;9.59633600;2023-06-01T01:11:19;6.70;;;3.20;;
1999;SDS011;1001;48.87406500;9.59633600;2023-06-01T01:13:47;5.23;;;3.10;;
1999;SDS011;1001;48.87406500;9.59633600;2023-06-01T01:16:16;3.80;;;2.83;;
1999;SDS011;1001;48.87406500;9.59633600;2023-06-01T01:18:46;4.83;;;2.70;;
1999;SDS011;1001;48.87406500;9.59633600;2023-06-01T01:21:21;2.90;;;2.47;;
1999;SDS011;1001;48.87406500;9.59633600;2023-06-01T01:24:06;3.27;;;2.70;;
1999;SDS011;1001;48.87406500;9.59633600;2023-06-01T01:26:41;5.00;;;3.20;;
1999;SDS011;1001;48.87406500;9.59633600;2023-06-01T01:29:12;4.43;;;2.70;;
1999;SDS011;1001;48.87406500;9.59633600;2023-06-01T01:31:40;4.77;;;2.90;;
1999;SDS011;1001;48.87406500;9.59633600;2023-06-01T01:34:07;4.00;;;2.80;;
1999;SDS011;1001;48.87406500;9.59633600;2023-06-01T01:36:34;4.67;;;2.77;;
1999;SDS011;1001;48.87406500;9.59633600;2023-06-01T01:39:01;5.30;;;2.90;;
1999;SDS011;1001;48.87406500;9.59633600;2023-06-01T01:41:27;9.20;;;2.83;;
1999;SDS011;1001;48.87406500;9.59633600;2023-06-01T01:43:54;5.37;;;3.20;;
1999;SDS011;1001;48.87406500;9.59633600;2023-06-01T01:46:25;4.47;;;3.03;;
1999;SDS011;1001;48.87406500;9.59633600;2023-06-01T01:48:54;3.20;;;2.50;;
1999;SDS011;1001;48.87406500;9.59633600;2023-06-01T01:51:24;5.57;;;3.40;;
1999;SDS011;1001;48.87406500;9.59633600;2023-06-01T01:53:50;3.40;;;2.27;;
1999;SDS011;1001;48.87406500;9.59633600;2023-06-01T01:56:18;3.07;;;2.30;;
1999;SDS011;1001;48.87406500;9.59633600;2023-06-01T01:58:45;5.80;;;2.70;;
1999;SDS011;1001;48.87406500;9.59633600;2023-06-01T02:01:13;4.20;;;2.50;;
1999;SDS011;1001;48.87406500;9.59633600;2023-06-01T02:03:41;7.93;;;3.20;;
1999;SDS011;1001;48.87406500;9.59633600;2023-06-01T02:06:08;6.63;;;3.03;;
1999;SDS011;1001;48.87406500;9.59633600;2023-06-01T02:08:34;5.30;;;2.60;;
1999;SDS011;1001;48.87406500;9.59633600;2023-06-01T02:11:01;3.33;;;3.03;;
1999;SDS011;1001;48.87406500;9.59633600;2023-06-01T02:13:27;3.10;;;2.47;;
1999;SDS011;1001;48.87406500;9.59633600;2023-06-01T02:15:54;3.00;;;2.43;;
1999;SDS011;1001;48.87406500;9.59633600;2023-06-01T02:18:20;3.93;;;2.60;;
1999;SDS011;1001;48.87406500;9.59633600;2023-06-01T02:20:48;6.90;;;2.53;;
1999;SDS011;1001;48.87406500;9.59633600;2023-06-01T02:23:14;6.10;;;2.60;;
1999;SDS011;1001;48.87406500;9.59633600;2023-06-01T02:25:40;4.93;;;2.60;;
1999;SDS011;1001;48.87406500;9.59633600;2023-06-01T02:28:07;3.07;;;2.60;;
1999;SDS011;1001;48.87406500;9.59633600;2023-06-01T02:30:35;4.70;;;2.73;;
1999;SDS011;1001;48.87406500;9.59633600;2023-06-01T02:33:02;4.77;;;2.80;;
1999;SDS011;1001;48.87406500;9.59633600;2023-06-01T02:35:28;3.90;;;2.60;;
1999;SDS011;1001;48.87406500;9.59633600;2023-06-01T02:37:56;2.90;;;2.67;;
1999;SDS011;1001;48.87406500;9.59633600;2023-06-01T02:40:22;3.30;;;2.57;;
1999;SDS011;1001;48.87406500;9.59633600;2023-06-01T02:42:49;5.13;;;2.90;;
1999;SDS011;1001;48.87406500;9.59633600;2023-06-01T02:45:15;8.10;;;3.03;;
1999;SDS011;1001;48.87406500;9.59633600;2023-06-01T02:47:42;3.73;;;2.80;;
1999;SDS011;1001;48.87406500;9.59633600;2023-06-01T02:50:10;7.40;;;3.30;;
1999;SDS011;1001;48.87406500;9.59633600;2023-06-01T02:52:36;4.53;;;2.83;;
1999;SDS011;1001;48.87406500;9.59633600;2023-06-01T02:55:05;4.40;;;3.17;;
1999;SDS011;1001;48.87406500;9.59633600;2023-06-01T02:57:31;4.27;;;3.17;;
1999;SDS011;1001;48.87406500;9.59633600;2023-06-01T02:59:58;3.57;;;3.00;;
1999;SDS011;1001;48.87406500;9.59633600;2023-06-01T03:02:24;6.00;;;3.40;;
1999;SDS011;1001;48.87406500;9.59633600;2023-06-01T03:04:51;3.00;;;2.40;;
1999;SDS011;1001;48.87406500;9.59633600;2023-06-01T03:07:17;4.67;;;2.87;;
1999;SDS011;1001;48.87406500;9.59633600;2023-06-01T03:09:44;3.27;;;2.47;;
1999;SDS011;1001;48.87406500;9.59633600;2023-06-01T03:12:11;4.43;;;2.93;;
1999;SDS011;1001;48.87406500;9.59633600;2023-06-01T03:14:38;4.53;;;2.90;;
1999;SDS011;1001;48.87406500;9.59633600;2023-06-01T03:17:04;3.70;;;2.70;;
1999;SDS011;1001;48.87406500;9.59633600;2023-06-01T03:19:31;4.27;;;2.93;;
1999;SDS011;1001;48.87406500;9.59633600;2023-06-01T03:21:57;8.40;;;3.73;;
1999;SDS011;1001;48.87406500;9.59633600;2023-06-01T03:24:24;5.30;;;3.20;;
1999;SDS011;1001;48.87406500;9.59633600;2023-06-01T03:26:52;7.60;;;3.40;;
1999;SDS011;1001;48.87406500;9.59633600;2023-06-01T03:29:20;3.43;;;2.80;;
1999;SDS011;1001;48.87406500;9.59633600;2023-06-01T03:31:46;5.00;;;3.70;;
1999;SDS011;1001;48.87406500;9.59633600;2023-06-01T03:34:13;7.33;;;3.37;;
1999;SDS011;1001;48.87406500;9.59633600;2023-06-01T03:36:39;5.47;;;3.27;;
1999;SDS011;1001;48.87406500;9.59633600;2023-06-01T03:39:06;8.63;;;3.43;;
1999;SDS011;1001;48.87406500;9.59633600;2023-06-01T03:41:33;7.23;;;3.57;;
1999;SDS011;1001;48.87406500;9.59633600;2023-06-01T03:44:00;8.10;;;3.57;;
1999;SDS011;1001;48.87406500;9.59633600;2023-06-01T03:46:27;6.80;;;3.43;;
1999;SDS011;1001;48.87406500;9.59633600;2023-06-01T03:48:54;8.17;;;3.10;;
1999;SDS011;1001;48.87406500;9.59633600;2023-06-01T03:51:20;10.20;;;4.17;;
1999;SDS011;1001;48.87406500;9.59633600;2023-06-01T03:53:47;6.63;;;3.20;;
1999;SDS011;1001;48.87406500;9.59633600;2023-06-01T03:56:13;6.40;;;2.60;;
1999;SDS011;1001;48.87406500;9.59633600;2023-06-01T03:58:40;5.90;;;3.30;;
1999;SDS011;1001;48.87406500;9.59633600;2023-06-01T04:01:06;5.83;;;3.00;;
1999;SDS011;1001;48.87406500;9.59633600;2023-06-01T04:03:34;6.43;;;3.20;;
1999;SDS011;1001;48.87406500;9.59633600;2023-06-01T04:06:01;5.53;;;3.70;;
1999;SDS011;1001;48.87406500;9.59633600;2023-06-01T04:08:28;4.43;;;2.80;;
1999;SDS011;1001;48.87406500;9.59633600;2023-06-01T04:10:55;4.20;;;2.70;;
1999;SDS011;1001;48.87406500;9.59633600;2023-06-01T04:13:21;4.33;;;3.23;;
1999;SDS011;1001;48.87406500;9.59633600;2023-06-01T04:15:48;4.10;;;2.90;;
1999;SDS011;1001;48.87406500;9.59633600;2023-06-01T04:18:14;3.23;;;2.40;;
1999;SDS011;1001;48.87406500;9.59633600;2023-06-01T04:20:42;4.47;;;2.80;;
1999;SDS011;1001;48.87406500;9.59633600;2023-06-01T04:23:09;4.00;;;2.77;;
1999;SDS011;1001;48.87406500;9.59633600;2023-06-01T04:25:35;3.87;;;3.00;;
1999;SDS011;1001;48.87406500;9.59633600;2023-06-01T04:28:02;5.07;;;2.33;;
1999;SDS011;1001;48.87406500;9.59633600;2023-06-01T04:30:29;4.27;;;2.77;;
1999;SDS011;1001;48.87406500;9.59633600;2023-06-01T04:32:55;3.67;;;3.23;;
1999;SDS011;1001;48.87406500;9.59633600;2023-06-01T04:35:22;6.90;;;2.57;;
1999;SDS011;1001;48.87406500;9.59633600;2023-06-01T04:37:49;3.67;;;2.73;;
1999;SDS011;1001;48.87406500;9.59633600;2023-06-01T04:40:16;5.70;;;2.77;;
1999;SDS011;1001;48.87406500;9.59633600;2023-06-01T04:42:43;10.60;;;2.60;;
1999;SDS011;1001;48.87406500;9.59633600;2023-06-01T04:45:13;6.07;;;2.90;;
1999;SDS011;1001;48.87406500;9.59633600;2023-06-01T04:47:40;6.20;;;2.60;;
1999;SDS011;1001;48.87406500;9.59633600;2023-06-01T04:50:10;4.63;;;2.63;;
1999;SDS011;1001;48.87406500;9.59633600;2023-06-01T04:52:37;3.13;;;2.40;;
1999;SDS011;1001;48.87406500;9.59633600;2023-06-01T04:55:05;4.77;;;2.67;;
1999;SDS011;1001;48.87406500;9.59633600;2023-06-01T04:57:33;5.33;;;2.87;;
1999;SDS011;1001;48.87406500;9.59633600;2023-06-01T05:00:00;4.93;;;3.00;;
1999;SDS011;1001;48.87406500;9.59633600;2023-06-01T05:02:30;5.60;;;3.67;;
1999;SDS011;1001;48.87406500;9.59633600;2023-06-01T05:04:56;6.47;;;3.23;;
1999;SDS011;1001;48.87406500;9.59633600;2023-06-01T05:07:23;4.57;;;2.50;;
1999;SDS011;1001;48.87406500;9.59633600;2023-06-01T05:09:49;5.90;;;3.00;;
1999;SDS011;1001;48.87406500;9.59633600;2023-06-01T05:12:17;6.20;;;3.23;;
1999;SDS011;1001;48.87406500;9.59633600;2023-06-01T05:14:43;4.27;;;3.10;;
1999;SDS011;1001;48.87406500;9.59633600;2023-06-01T05:17:10;5.70;;;2.87;;
1999;SDS011;1001;48.87406500;9.59633600;2023-06-01T05:19:36;4.83;;;3.27;;
1999;SDS011;1001;48.87406500;9.59633600;2023-06-01T05:22:03;5.40;;;3.77;;
1999;SDS011;1001;48.87406500;9.59633600;2023-06-01T05:24:29;5.90;;;3.57;;
1999;SDS011;1001;48.87406500;9.59633600;2023-06-01T05:26:55;5.40;;;3.20;;
1999;SDS011;1001;48.87406500;9.59633600;2023-06-01T05:29:23;6.57;;;4.07;;
1999;SDS011;1001;48.87406500;9.59633600;2023-06-01T05:31:50;7.27;;;3.80;;
1999;SDS011;1001;48.87406500;9.59633600;2023-06-01T05:34:16;6.63;;;3.70;;
1999;SDS011;1001;48.87406500;9.59633600;2023-06-01T05:36:42;5.30;;;4.00;;
1999;SDS011;1001;48.87406500;9.59633600;2023-06-01T05:39:09;6.50;;;3.37;;
1999;SDS011;1001;48.87406500;9.59633600;2023-06-01T05:41:36;4.10;;;3.40;;
1999;SDS011;1001;48.87406500;9.59633600;2023-06-01T05:44:02;4.60;;;3.33;;
1999;SDS011;1001;48.87406500;9.59633600;2023-06-01T05:46:30;6.87;;;3.97;;
1999;SDS011;1001;48.87406500;9.59633600;2023-06-01T05:48:56;4.47;;;3.20;;
1999;SDS011;1001;48.87406500;9.59633600;2023-06-01T05:51:22;6.37;;;3.50;;
1999;SDS011;1001;48.87406500;9.59633600;2023-06-01T05:53:49;5.63;;;3.77;;
1999;SDS011;1001;48.87406500;9.59633600;2023-06-01T05:56:15;6.27;;;3.00;;
1999;SDS011;1001;48.87406500;9.59633600;2023-06-01T05:58:42;9.07;;;3.60;;
1999;SDS011;1001;48.87406500;9.59633600;2023-06-01T06:01:08;4.33;;;3.17;;
1999;SDS011;1001;48.87406500;9.59633600;2023-06-01T06:03:37;5.67;;;3.30;;
1999;SDS011;1001;48.87406500;9.59633600;2023-06-01T06:06:04;5.00;;;3.50;;
1999;SDS011;1001;48.87406500;9.59633600;2023-06-01T06:08:30;6.83;;;3.40;;
1999;SDS011;1001;48.87406500;9.59633600;2023-06-01T06:10:56;5.10;;;3.23;;
1999;SDS011;1001;48.87406500;9.59633600;2023-06-01T06:13:23;5.03;;;3.50;;
1999;SDS011;1001;48.87406500;9.59633600;2023-06-01T06:15:49;5.47;;;3.17;;
1999;SDS011;1001;48.87406500;9.59633600;2023-06-01T06:18:16;6.73;;;3.30;;
1999;SDS011;1001;48.87406500;9.59633600;2023-06-01T06:20:45;7.20;;;3.17;;
1999;SDS011;1001;48.87406500;9.59633600;2023-06-01T06:23:12;7.10;;;3.37;;
1999;SDS011;1001;48.87406500;9.59633600;2023-06-01T06:25:38;5.00;;;3.43;;
1999;SDS011;1001;48.87406500;9.59633600;2023-06-01T06:28:06;4.90;;;3.10;;
1999;SDS011;1001;48.87406500;9.59633600;2023-06-01T06:30:33;4.47;;;3.20;;
1999;SDS011;1001;48.87406500;9.59633600;2023-06-01T06:32:59;5.50;;;2.87;;
1999;SDS011;1001;48.87406500;9.59633600;2023-06-01T06:35:25;3.87;;;3.27;;
1999;SDS011;1001;48.87406500;9.59633600;2023-06-01T06:37:54;4.83;;;3.20;;
1999;SDS011;1001;48.87406500;9.59633600;2023-06-01T06:40:20;5.17;;;3.13;;
1999;SDS011;1001;48.87406500;9.59633600;2023-06-01T06:42:47;6.43;;;3.47;;
1999;SDS011;1001;48.87406500;9.59633600;2023-06-01T06:45:15;3.23;;;2.93;;
1999;SDS011;1001;48.87406500;9.59633600;2023-06-01T06:47:41;7.00;;;3.23;;
1999;SDS011;1001;48.87406500;9.59633600;2023-06-01T06:50:10;5.17;;;3.23;;
1999;SDS011;1001;48.87406500;9.59633600;2023-06-01T06:52:37;4.33;;;3.03;;
1999;SDS011;1001;48.87406500;9.59633600;2023-06-01T06:55:05;3.87;;;3.23;;
1999;SDS011;1001;48.87406500;9.59633600;2023-06-01T06:57:32;4.30;;;3.40;;
1999;SDS011;1001;48.87406500;9.59633600;2023-06-01T07:00:00;5.37;;;3.40;;
1999;SDS011;1001;48.87406500;9.59633600;2023-06-01T07:02:30;3.20;;;2.90;;
1999;SDS011;1001;48.87406500;9.59633600;2023-06-01T07:04:56;4.17;;;3.10;;
1999;SDS011;1001;48.87406500;9.59633600;2023-06-01T07:07:23;6.77;;;3.57;;
1999;SDS011;1001;48.87406500;9.59633600;2023-06-01T07:09:49;4.43;;;3.10;;
1999;SDS011;1001;48.87406500;9.59633600;2023-06-01T07:12:17;7.03;;;3.63;;
1999;SDS011;1001;48.87406500;9.59633600;2023-06-01T07:14:43;4.40;;;3.50;;
1999;SDS011;1001;48.87406500;9.59633600;2023-06-01T07:17:10;6.20;;;3.50;;
1999;SDS011;1001;48.87406500;9.59633600;2023-06-01T07:19:36;4.47;;;3.23;;
1999;SDS011;1001;48.87406500;9.59633600;2023-06-01T07:22:03;5.20;;;3.70;;
1999;SDS011;1001;48.87406500;9.59633600;2023-06-01T07:24:29;4.80;;;3.60;;
1999;SDS011;1001;48.87406500;9.59633600;2023-06-01T07:26:56;4.17;;;3.77;;
1999;SDS011;1001;48.87406500;9.59633600;2023-06-01T07:29:24;6.83;;;3.70;;
1999;SDS011;1001;48.87406500;9.59633600;2023-06-01T07:31:51;4.20;;;3.60;;
1999;SDS011;1001;48.87406500;9.59633600;2023-06-01T07:34:18;7.70;;;3.67;;
1999;SDS011;1001;48.87406500;9.59633600;2023-06-01T07:36:45;6.60;;;4.20;;
1999;SDS011;1001;48.87406500;9.59633600;2023-06-01T07:39:12;7.50;;;3.63;;
1999;SDS011;1001;48.87406500;9.59633600;2023-06-01T07:41:38;6.57;;;3.97;;
1999;SDS011;1001;48.87406500;9.59633600;2023-06-01T07:44:05;4.67;;;4.00;;
1999;SDS011;1001;48.87406500;9.59633600;2023-06-01T07:46:34;6.50;;;4.00;;
1999;SDS011;1001;48.87406500;9.59633600;2023-06-01T07:49:00;6.00;;;4.03;;
1999;SDS011;1001;48.87406500;9.59633600;2023-06-01T07:51:27;3.57;;;3.27;;
1999;SDS011;1001;48.87406500;9.59633600;2023-06-01T07:53:54;5.23;;;3.40;;
1999;SDS011;1001;48.87406500;9.59633600;2023-06-01T07:56:22;6.53;;;3.67;;
1999;SDS011;1001;48.87406500;9.59633600;2023-06-01T07:58:51;3.73;;;3.17;;
1999;SDS011;1001;48.87406500;9.59633600;2023-06-01T08:01:17;4.23;;;3.83;;
1999;SDS011;1001;48.87406500;9.59633600;2023-06-01T08:03:45;8.63;;;4.17;;
1999;SDS011;1001;48.87406500;9.59633600;2023-06-01T08:06:12;5.83;;;3.90;;
1999;SDS011;1001;48.87406500;9.59633600;2023-06-01T08:08:38;3.87;;;3.17;;
1999;SDS011;1001;48.87406500;9.59633600;2023-06-01T08:11:05;4.80;;;3.60;;
1999;SDS011;1001;48.87406500;9.59633600;2023-06-01T08:13:32;4.00;;;3.53;;
1999;SDS011;1001;48.87406500;9.59633600;2023-06-01T08:16:00;5.07;;;3.40;;
1999;SDS011;1001;48.87406500;9.59633600;2023-06-01T08:18:26;5.10;;;4.10;;
1999;SDS011;1001;48.87406500;9.59633600;2023-06-01T08:20:55;4.73;;;3.70;;
1999;SDS011;1001;48.87406500;9.59633600;2023-06-01T08:23:21;7.63;;;3.87;;
1999;SDS011;1001;48.87406500;9.59633600;2023-06-01T08:25:48;3.40;;;3.03;;
1999;SDS011;1001;48.87406500;9.59633600;2023-06-01T08:28:14;6.67;;;3.87;;
1999;SDS011;1001;48.87406500;9.59633600;2023-06-01T08:30:41;6.23;;;3.53;;
1999;SDS011;1001;48.87406500;9.59633600;2023-06-01T08:33:07;4.57;;;3.47;;
1999;SDS011;1001;48.87406500;9.59633600;2023-06-01T08:35:34;7.23;;;4.07;;
1999;SDS011;1001;48.87406500;9.59633600;2023-06-01T08:38:02;4.17;;;3.40;;
1999;SDS011;1001;48.87406500;9.59633600;2023-06-01T08:40:28;5.80;;;3.97;;
1999;SDS011;1001;48.87406500;9.59633600;2023-06-01T08:42:57;5.80;;;4.53;;
1999;SDS011;1001;48.87406500;9.59633600;2023-06-01T08:45:23;5.77;;;4.20;;
1999;SDS011;1001;48.87406500;9.59633600;2023-06-01T08:47:52;7.97;;;4.90;;
1999;SDS011;1001;48.87406500;9.59633600;2023-06-01T08:50:19;3.97;;;3.57;;
1999;SDS011;1001;48.87406500;9.59633600;2023-06-01T08:52:46;4.80;;;3.90;;
1999;SDS011;1001;48.87406500;9.59633600;2023-06-01T08:55:14;4.97;;;4.17;;
1999;SDS011;1001;48.87406500;9.59633600;2023-06-01T08:57:41;8.17;;;4.60;;
1999;SDS011;1001;48.87406500;9.59633600;2023-06-01T09:00:08;6.20;;;4.90;;
1999;SDS011;1001;48.87406500;9.59633600;2023-06-01T09:02:34;9.40;;;4.57;;
1999;SDS011;1001;48.87406500;9.59633600;2023-06-01T09:05:01;8.07;;;4.40;;
1999;SDS011;1001;48.87406500;9.59633600;2023-06-01T09:07:27;6.80;;;4.40;;
1999;SDS011;1001;48.87406500;9.59633600;2023-06-01T09:09:56;6.20;;;4.27;;
1999;SDS011;1001;48.87406500;9.59633600;2023-06-01T09:12:24;6.83;;;4.63;;
1999;SDS011;1001;48.87406500;9.59633600;2023-06-01T09:15:07;7.07;;;5.30;;
1999;SDS011;1001;48.87406500;9.59633600;2023-06-01T09:17:34;8.20;;;4.47;;
1999;SDS011;1001;48.87406500;9.59633600;2023-06-01T09:20:00;8.50;;;4.80;;
1999;SDS011;1001;48.87406500;9.59633600;2023-06-01T09:22:37;6.50;;;4.20;;
1999;SDS011;1001;48.87406500;9.59633600;2023-06-01T09:25:04;6.80;;;5.23;;
1999;SDS011;1001;48.87406500;9.59633600;2023-06-01T09:27:32;7.90;;;4.53;;
1999;SDS011;1001;48.87406500;9.59633600;2023-06-01T09:30:08;6.13;;;4.20;;
1999;SDS011;1001;48.87406500;9.59633600;2023-06-01T09:32:34;7.03;;;4.90;;
1999;SDS011;1001;48.87406500;9.59633600;2023-06-01T09:35:00;4.77;;;3.83;;
1999;SDS011;1001;48.87406500;9.59633600;2023-06-01T09:37:28;6.30;;;5.00;;
1999;SDS011;1001;48.87406500;9.59633600;2023-06-01T09:39:54;4.90;;;4.10;;
1999;SDS011;1001;48.87406500;9.59633600;2023-06-01T09:42:30;7.30;;;4.43;;
1999;SDS011;1001;48.87406500;9.59633600;2023-06-01T09:44:58;5.53;;;4.07;;
1999;SDS011;1001;48.87406500;9.59633600;2023-06-01T09:47:39;4.67;;;3.80;;
1999;SDS011;1001;48.87406500;9.59633600;2023-06-01T09:50:06;5.37;;;4.17;;
1999;SDS011;1001;48.87406500;9.59633600;2023-06-01T09:52:32;7.60;;;4.00;;
1999;SDS011;1001;48.87406500;9.59633600;2023-06-01T09:55:04;9.03;;;5.07;;
1999;SDS011;1001;48.87406500;9.59633600;2023-06-01T09:57:31;6.53;;;4.53;;
1999;SDS011;1001;48.87406500;9.59633600;2023-06-01T09:59:59;4.50;;;3.70;;
1999;SDS011;1001;48.87406500;9.59633600;2023-06-01T10:02:27;6.40;;;4.23;;
1999;SDS011;1001;48.87406500;9.59633600;2023-06-01T10:04:56;6.73;;;4.07;;
1999;SDS011;1001;48.87406500;9.59633600;2023-06-01T10:07:23;6.90;;;4.30;;
1999;SDS011;1001;48.87406500;9.59633600;2023-06-01T10:09:52;5.17;;;4.47;;
1999;SDS011;1001;48.87406500;9.59633600;2023-06-01T10:12:19;7.80;;;4.63;;
1999;SDS011;1001;48.87406500;9.59633600;2023-06-01T10:14:46;6.17;;;4.20;;
1999;SDS011;1001;48.87406500;9.59633600;2023-06-01T10:17:15;5.20;;;4.60;;
1999;SDS011;1001;48.87406500;9.59633600;2023-06-01T10:19:42;4.90;;;3.87;;
1999;SDS011;1001;48.87406500;9.59633600;2023-06-01T10:22:08;7.27;;;4.97;;
1999;SDS011;1001;48.87406500;9.59633600;2023-06-01T10:24:36;6.57;;;4.47;;
1999;SDS011;1001;48.87406500;9.59633600;2023-06-01T10:27:07;6.37;;;4.10;;
1999;SDS011;1001;48.87406500;9.59633600;2023-06-01T10:29:36;4.87;;;4.40;;
1999;SDS011;1001;48.87406500;9.59633600;2023-06-01T10:32:03;5.50;;;4.10;;
1999;SDS011;1001;48.87406500;9.59633600;2023-06-01T10:34:37;4.37;;;3.97;;
1999;SDS011;1001;48.87406500;9.59633600;2023-06-01T10:37:10;5.47;;;4.20;;
1999;SDS011;1001;48.87406500;9.59633600;2023-06-01T10:39:37;5.20;;;4.47;;
1999;SDS011;1001;48.87406500;9.59633600;2023-06-01T10:44:48;7.30;;;3.90;;
1999;SDS011;1001;48.87406500;9.59633600;2023-06-01T10:50:09;4.63;;;3.87;;
1999;SDS011;1001;48.87406500;9.59633600;2023-06-01T10:52:36;5.57;;;3.83;;
1999;SDS011;1001;48.87406500;9.59633600;2023-06-01T10:57:49;5.17;;;4.67;;
1999;SDS011;1001;48.87406500;9.59633600;2023-06-01T11:00:17;4.80;;;4.27;;
1999;SDS011;1001;48.87406500;9.59633600;2023-06-01T11:02:49;5.67;;;4.20;;
1999;SDS011;1001;48.87406500;9.59633600;2023-06-01T11:05:35;5.97;;;4.10;;
1999;SDS011;1001;48.87406500;9.59633600;2023-06-01T11:08:02;4.87;;;4.37;;
1999;SDS011;1001;48.87406500;9.59633600;2023-06-01T11:13:13;5.00;;;4.50;;
1999;SDS011;1001;48.87406500;9.59633600;2023-06-01T11:18:44;4.80;;;3.67;;
1999;SDS011;1001;48.87406500;9.59633600;2023-06-01T11:21:14;4.10;;;3.70;;
1999;SDS011;1001;48.87406500;9.59633600;2023-06-01T11:23:41;3.70;;;3.27;;
1999;SDS011;1001;48.87406500;9.59633600;2023-06-01T11:26:08;5.73;;;3.70;;
1999;SDS011;1001;48.87406500;9.59633600;2023-06-01T11:28:34;5.33;;;3.70;;
1999;SDS011;1001;48.87406500;9.59633600;2023-06-01T11:31:01;6.70;;;3.83;;
1999;SDS011;1001;48.87406500;9.59633600;2023-06-01T11:33:28;4.47;;;3.40;;
1999;SDS011;1001;48.87406500;9.59633600;2023-06-01T11:35:59;6.87;;;4.17;;
1999;SDS011;1001;48.87406500;9.59633600;2023-06-01T11:38:32;6.00;;;3.90;;
1999;SDS011;1001;48.87406500;9.59633600;2023-06-01T11:40:59;5.57;;;4.00;;
1999;SDS011;1001;48.87406500;9.59633600;2023-06-01T11:43:26;5.63;;;3.87;;
1999;SDS011;1001;48.87406500;9.59633600;2023-06-01T11:45:59;5.33;;;3.93;;
1999;SDS011;1001;48.87406500;9.59633600;2023-06-01T11:48:25;3.70;;;3.40;;
1999;SDS011;1001;48.87406500;9.59633600;2023-06-01T11:50:52;6.20;;;3.90;;
1999;SDS011;1001;48.87406500;9.59633600;2023-06-01T11:53:19;5.63;;;4.23;;
1999;SDS011;1001;48.87406500;9.59633600;2023-06-01T11:55:50;5.87;;;4.20;;
1999;SDS011;1001;48.87406500;9.59633600;2023-06-01T11:58:20;4.97;;;3.30;;
1999;SDS011;1001;48.87406500;9.59633600;2023-06-01T12:00:47;4.47;;;4.07;;
1999;SDS011;1001;48.87406500;9.59633600;2023-06-01T12:03:13;4.80;;;3.43;;
1999;SDS011;1001;48.87406500;9.59633600;2023-06-01T12:05:41;6.83;;;4.13;;
1999;SDS011;1001;48.87406500;9.59633600;2023-06-01T12:08:13;7.70;;;3.90;;
1999;SDS011;1001;48.87406500;9.59633600;2023-06-01T12:10:41;4.07;;;3.10;;
1999;SDS011;1001;48.87406500;9.59633600;2023-06-01T12:13:09;4.77;;;4.00;;
1999;SDS011;1001;48.87406500;9.59633600;2023-06-01T12:15:36;5.33;;;4.03;;
1999;SDS011;1001;48.87406500;9.59633600;2023-06-01T12:18:03;4.03;;;3.63;;
1999;SDS011;1001;48.87406500;9.59633600;2023-06-01T12:20:30;4.07;;;3.67;;
1999;SDS011;1001;48.87406500;9.59633600;2023-06-01T12:22:57;4.33;;;3.80;;
1999;SDS011;1001;48.87406500;9.59633600;2023-06-01T12:25:23;5.10;;;3.40;;
1999;SDS011;1001;48.87406500;9.59633600;2023-06-01T12:27:59;4.27;;;3.60;;
1999;SDS011;1001;48.87406500;9.59633600;2023-06-01T12:30:27;5.90;;;4.13;;
1999;SDS011;1001;48.87406500;9.59633600;2023-06-01T12:32:54;6.43;;;3.63;;
1999;SDS011;1001;48.87406500;9.59633600;2023-06-01T12:35:20;5.23;;;3.63;;
1999;SDS011;1001;48.87406500;9.59633600;2023-06-01T12:38:01;5.23;;;3.93;;
1999;SDS011;1001;48.87406500;9.59633600;2023-06-01T12:40:28;5.87;;;3.60;;
1999;SDS011;1001;48.87406500;9.59633600;2023-06-01T12:42:54;4.10;;;3.70;;
1999;SDS011;1001;48.87406500;9.59633600;2023-06-01T12:45:21;3.63;;;2.83;;
1999;SDS011;1001;48.87406500;9.59633600;2023-06-01T12:47:48;4.00;;;3.60;;
1999;SDS011;1001;48.87406500;9.59633600;2023-06-01T12:50:15;5.53;;;3.57;;
1999;SDS011;1001;48.87406500;9.59633600;2023-06-01T12:52:42;6.03;;;3.73;;
1999;SDS011;1001;48.87406500;9.59633600;2023-06-01T12:55:09;4.40;;;3.73;;
1999;SDS011;1001;48.87406500;9.59633600;2023-06-01T12:57:36;4.27;;;3.87;;
1999;SDS011;1001;48.87406500;9.59633600;2023-06-01T13:00:03;5.50;;;3.40;;
1999;SDS011;1001;48.87406500;9.59633600;2023-06-01T13:02:31;4.57;;;2.97;;
1999;SDS011;1001;48.87406500;9.59633600;2023-06-01T13:04:59;5.40;;;3.60;;
1999;SDS011;1001;48.87406500;9.59633600;2023-06-01T13:07:26;4.70;;;3.30;;
1999;SDS011;1001;48.87406500;9.59633600;2023-06-01T13:09:52;3.63;;;3.00;;
1999;SDS011;1001;48.87406500;9.59633600;2023-06-01T13:12:19;3.10;;;2.67;;
1999;SDS011;1001;48.87406500;9.59633600;2023-06-01T13:14:45;5.43;;;3.07;;
1999;SDS011;1001;48.87406500;9.59633600;2023-06-01T13:17:12;5.67;;;2.50;;
1999;SDS011;1001;48.87406500;9.59633600;2023-06-01T13:19:38;2.93;;;2.70;;
1999;SDS011;1001;48.87406500;9.59633600;2023-06-01T13:22:06;4.33;;;3.30;;
1999;SDS011;1001;48.87406500;9.59633600;2023-06-01T13:24:32;2.83;;;2.53;;
1999;SDS011;1001;48.87406500;9.59633600;2023-06-01T13:26:59;3.90;;;2.70;;